Time;durP1;ratioP1;P1;durP2;ratioP2;P2;SDS_P1;SDS_P2;PMS_P1;PMS_P2;Temp;Humidity;BMP_temperature;BMP_pressure;BME280_temperature;BME280_humidity;BME280_pressure;Samples;Min_cycle;Max_cycle;Signal;HPM_P1;HPM_P2
2024/01/11 04:01:15;;;;;;;55.05;22.88;;;-5.10;99.90;;;;;;5590049;23;20065;-77
2024/01/11 04:03:42;;;;;;;59.50;22.65;;;-5.10;99.90;;;;;;4939271;29;20039;-77
2024/01/11 04:06:07;;;;;;;61.03;22.85;;;-5.10;99.90;;;;;;4939715;29;20487;-79
2024/01/11 04:08:33;;;;;;;57.05;23.35;;;-5.10;99.90;;;;;;4956661;29;20062;-78
2024/01/11 04:11:03;;;;;;;56.35;22.15;;;-5.10;99.90;;;;;;4932574;29;20440;-78
2024/01/11 04:13:28;;;;;;;61.50;23.13;;;-5.10;99.90;;;;;;4920359;29;20042;-78
2024/01/11 04:15:54;;;;;;;65.55;25.13;;;-5.10;99.90;;;;;;4937431;29;20391;-78
2024/01/11 04:18:19;;;;;;;59.75;23.92;;;-5.20;99.90;;;;;;4936894;29;20483;-79
2024/01/11 04:20:45;;;;;;;63.63;23.73;;;-5.20;99.90;;;;;;4936743;29;20044;-78
2024/01/11 04:23:10;;;;;;;65.10;24.85;;;-5.20;99.90;;;;;;4937079;29;20038;-78
2024/01/11 04:25:36;;;;;;;64.30;23.85;;;-5.20;99.90;;;;;;4937063;29;20040;-77
2024/01/11 04:28:02;;;;;;;59.05;23.30;;;-5.20;99.90;;;;;;4936983;29;20044;-77
2024/01/11 04:30:27;;;;;;;65.50;24.05;;;-5.20;99.90;;;;;;4937131;29;20035;-78
2024/01/11 04:32:53;;;;;;;65.28;25.83;;;-5.20;99.90;;;;;;4937038;29;20415;-78
2024/01/11 04:35:19;;;;;;;58.97;24.05;;;-5.10;99.90;;;;;;4935851;29;20476;-79
2024/01/11 04:37:44;;;;;;;63.33;25.10;;;-5.10;99.90;;;;;;4936973;29;20043;-78
2024/01/11 04:40:10;;;;;;;56.70;23.25;;;-5.10;99.90;;;;;;4919715;29;20039;-80
2024/01/11 04:42:36;;;;;;;59.35;22.45;;;-5.10;99.90;;;;;;4936635;29;20044;-79
2024/01/11 04:45:02;;;;;;;65.05;24.50;;;-5.10;99.90;;;;;;4937857;29;20043;-78
2024/01/11 04:47:27;;;;;;;65.18;24.20;;;-5.10;99.90;;;;;;4919420;29;20106;-78
2024/01/11 04:49:53;;;;;;;67.00;24.30;;;-5.20;99.90;;;;;;4936859;29;20103;-80
2024/01/11 04:52:18;;;;;;;62.63;22.15;;;-5.20;99.90;;;;;;4936555;29;20043;-79
2024/01/11 04:54:44;;;;;;;64.18;24.35;;;-5.20;99.90;;;;;;4936808;29;20047;-78
2024/01/11 04:57:10;;;;;;;54.38;21.60;;;-5.20;99.90;;;;;;4936763;29;20122;-77
2024/01/11 04:59:35;;;;;;;61.60;23.27;;;-5.20;99.90;;;;;;4936673;29;20380;-78
2024/01/11 05:02:01;;;;;;;52.40;21.70;;;-5.30;99.90;;;;;;4936238;29;20464;-78
2024/01/11 05:04:27;;;;;;;61.13;23.58;;;-5.30;99.90;;;;;;4919824;29;20032;-78
2024/01/11 05:06:52;;;;;;;63.47;24.40;;;-5.30;99.90;;;;;;4936449;29;20102;-78
2024/01/11 05:09:18;;;;;;;62.00;23.77;;;-5.30;99.90;;;;;;4919675;29;20054;-79
2024/01/11 05:11:44;;;;;;;57.70;23.15;;;-5.40;99.90;;;;;;4936983;29;20043;-78
2024/01/11 05:14:09;;;;;;;63.47;22.88;;;-5.40;99.90;;;;;;4936564;29;20044;-79
2024/01/11 05:16:35;;;;;;;60.15;23.55;;;-5.40;99.90;;;;;;4936280;29;20040;-78
2024/01/11 05:19:01;;;;;;;57.80;21.55;;;-5.40;99.90;;;;;;4919451;29;20056;-78
2024/01/11 05:21:27;;;;;;;52.33;20.55;;;-5.50;99.90;;;;;;4936271;29;20484;-79
2024/01/11 05:23:52;;;;;;;59.13;21.73;;;-5.50;99.90;;;;;;4936584;29;20035;-78
2024/01/11 05:26:19;;;;;;;56.50;22.00;;;-5.50;99.90;;;;;;4919370;29;20047;-78
2024/01/11 05:28:45;;;;;;;57.53;23.27;;;-5.50;99.90;;;;;;4936338;29;20036;-79
2024/01/11 05:31:12;;;;;;;65.63;24.25;;;-5.50;99.90;;;;;;4919386;29;20039;-78
2024/01/11 05:33:38;;;;;;;58.33;22.48;;;-5.40;99.90;;;;;;4919118;29;20043;-78
2024/01/11 05:36:04;;;;;;;68.45;25.08;;;-5.40;99.90;;;;;;4936573;29;20046;-78
2024/01/11 05:38:30;;;;;;;63.03;24.67;;;-5.30;99.90;;;;;;4936039;29;20464;-78
2024/01/11 05:40:56;;;;;;;69.28;24.65;;;-5.30;99.90;;;;;;4936014;29;20071;-78
2024/01/11 05:43:23;;;;;;;63.95;24.77;;;-5.20;99.90;;;;;;4936155;29;20047;-78
2024/01/11 05:45:49;;;;;;;65.47;25.80;;;-5.10;99.90;;;;;;4937000;29;20051;-79
2024/01/11 05:48:16;;;;;;;70.07;26.67;;;-5.00;99.90;;;;;;4940235;29;20115;-78
2024/01/11 05:50:43;;;;;;;70.55;26.33;;;-4.80;99.90;;;;;;4939822;29;20523;-79
2024/01/11 05:53:08;;;;;;;70.78;26.23;;;-4.70;99.90;;;;;;4923015;29;20043;-79
2024/01/11 05:55:34;;;;;;;71.60;25.42;;;-4.60;99.90;;;;;;4940151;29;20044;-77
2024/01/11 05:58:01;;;;;;;67.30;25.23;;;-4.60;99.90;;;;;;4922969;29;20059;-79
2024/01/11 06:00:26;;;;;;;69.18;25.77;;;-4.50;99.90;;;;;;4922544;29;20047;-78
2024/01/11 06:02:52;;;;;;;70.53;26.90;;;-4.50;99.90;;;;;;4939964;29;20035;-79
2024/01/11 06:05:18;;;;;;;72.65;27.88;;;-4.40;99.90;;;;;;4939899;29;20044;-78
2024/01/11 06:07:43;;;;;;;69.68;26.60;;;-4.30;99.90;;;;;;4922721;29;20383;-78
2024/01/11 06:10:10;;;;;;;69.28;25.92;;;-4.30;99.90;;;;;;4907124;29;20040;-79
2024/01/11 06:12:36;;;;;;;72.32;26.80;;;-4.20;99.90;;;;;;4906583;29;20055;-78
2024/01/11 06:15:02;;;;;;;68.60;27.52;;;-4.20;99.90;;;;;;4939749;29;20062;-78
2024/01/11 06:17:28;;;;;;;69.78;25.52;;;-4.20;99.90;;;;;;4939624;29;20044;-77
2024/01/11 06:19:55;;;;;;;75.13;27.25;;;-4.10;99.90;;;;;;4939519;29;20074;-78
2024/01/11 06:22:20;;;;;;;64.50;25.27;;;-4.00;99.90;;;;;;4939358;29;20046;-78
2024/01/11 06:24:46;;;;;;;71.03;27.00;;;-3.90;99.90;;;;;;4939918;29;20035;-78
2024/01/11 06:27:12;;;;;;;70.18;26.83;;;-3.90;99.90;;;;;;4939679;29;20062;-78
2024/01/11 06:29:38;;;;;;;69.10;25.77;;;-3.80;99.90;;;;;;4922074;29;20079;-79
2024/01/11 06:32:03;;;;;;;70.22;25.65;;;-3.80;99.90;;;;;;4939268;29;20118;-78
2024/01/11 06:34:29;;;;;;;69.72;27.02;;;-3.70;99.90;;;;;;4922252;29;20043;-79
2024/01/11 06:36:56;;;;;;;64.53;26.38;;;-3.70;99.90;;;;;;4939610;29;20043;-78
2024/01/11 06:39:22;;;;;;;68.60;26.90;;;-3.60;99.90;;;;;;4938970;29;20427;-78
2024/01/11 06:41:47;;;;;;;71.15;26.35;;;-3.60;99.90;;;;;;4922229;29;20054;-77
2024/01/11 06:44:13;;;;;;;65.75;25.88;;;-3.50;99.90;;;;;;4938905;29;20039;-78
2024/01/11 06:46:41;;;;;;;65.35;26.88;;;-3.50;99.90;;;;;;4922237;29;20094;-79
2024/01/11 06:49:08;;;;;;;69.25;26.73;;;-3.50;99.90;;;;;;4938656;29;20048;-78
2024/01/11 06:51:33;;;;;;;68.72;26.83;;;-3.50;99.90;;;;;;4938664;29;20054;-78
2024/01/11 06:54:01;;;;;;;71.20;27.60;;;-3.40;99.90;;;;;;4922109;29;20396;-79
2024/01/11 06:56:27;;;;;;;67.75;26.77;;;-3.30;99.90;;;;;;4921247;29;20051;-78
2024/01/11 06:58:54;;;;;;;70.75;27.45;;;-3.30;99.90;;;;;;4937055;29;20502;-78
2024/01/11 07:01:21;;;;;;;67.32;26.67;;;-3.30;99.90;;;;;;4938328;29;20055;-78
2024/01/11 07:03:46;;;;;;;71.10;26.33;;;-3.30;99.90;;;;;;4938127;29;20476;-79
2024/01/11 07:06:12;;;;;;;66.45;26.92;;;-3.20;99.90;;;;;;4921865;29;20048;-79
2024/01/11 07:08:38;;;;;;;65.55;26.10;;;-3.20;99.90;;;;;;4938464;29;20065;-77
2024/01/11 07:11:04;;;;;;;64.35;24.65;;;-3.20;99.90;;;;;;4921329;29;20047;-78
2024/01/11 07:13:31;;;;;;;70.63;27.73;;;-3.10;99.90;;;;;;4938253;29;20112;-78
2024/01/11 07:15:58;;;;;;;69.93;28.00;;;-3.10;99.90;;;;;;4921080;29;20099;-78
2024/01/11 07:18:25;;;;;;;69.50;27.85;;;-3.10;99.90;;;;;;4938082;29;20052;-79
2024/01/11 07:20:51;;;;;;;69.43;28.08;;;-3.00;99.90;;;;;;4937677;29;20071;-78
2024/01/11 07:23:17;;;;;;;80.25;29.25;;;-3.00;99.90;;;;;;4938092;29;20051;-77
2024/01/11 07:25:43;;;;;;;73.38;29.25;;;-3.00;99.90;;;;;;4938005;29;20032;-78
2024/01/11 07:28:08;;;;;;;80.68;31.98;;;-3.00;99.90;;;;;;4937693;29;20044;-79
2024/01/11 07:30:34;;;;;;;71.53;28.90;;;-2.90;99.90;;;;;;4937938;29;20075;-78
2024/01/11 07:33:00;;;;;;;64.07;26.80;;;-2.90;99.90;;;;;;4937922;29;20099;-79
2024/01/11 07:35:26;;;;;;;71.55;28.27;;;-2.90;99.90;;;;;;4937977;29;20471;-77
2024/01/11 07:37:52;;;;;;;69.97;28.50;;;-2.90;99.90;;;;;;4920821;29;20043;-78
2024/01/11 07:40:17;;;;;;;72.22;27.42;;;-2.80;99.90;;;;;;4937681;29;20086;-78
2024/01/11 07:42:43;;;;;;;70.80;30.38;;;-2.80;99.90;;;;;;4938148;29;20040;-78
2024/01/11 07:45:13;;;;;;;83.07;30.63;;;-2.80;99.90;;;;;;4938532;29;20035;-78
2024/01/11 07:47:39;;;;;;;77.57;29.80;;;-2.80;99.90;;;;;;4921162;29;20369;-78
2024/01/11 07:50:07;;;;;;;75.90;30.73;;;-2.80;99.90;;;;;;4937422;29;20483;-79
2024/01/11 07:52:36;;;;;;;76.95;29.40;;;-2.70;99.90;;;;;;4920177;29;20082;-78
2024/01/11 07:55:07;;;;;;;69.00;28.65;;;-2.70;99.90;;;;;;4937831;29;20055;-79
2024/01/11 07:57:37;;;;;;;63.33;26.70;;;-2.60;99.90;;;;;;4937507;29;20071;-80
2024/01/11 08:00:06;;;;;;;77.50;29.63;;;-2.60;99.90;;;;;;4920303;29;20072;-79
2024/01/11 08:02:32;;;;;;;74.90;28.90;;;-2.60;99.90;;;;;;4920029;29;20082;-79
2024/01/11 08:04:59;;;;;;;69.82;28.90;;;-2.60;99.90;;;;;;4920122;29;20047;-79
2024/01/11 08:07:26;;;;;;;78.18;29.77;;;-2.50;99.90;;;;;;4936980;29;20074;-78
2024/01/11 08:09:52;;;;;;;77.10;31.38;;;-2.50;99.90;;;;;;4936960;29;20090;-78
2024/01/11 08:12:18;;;;;;;72.20;29.67;;;-2.50;99.90;;;;;;4920316;29;20079;-74
2024/01/11 08:14:44;;;;;;;75.72;29.27;;;-2.40;99.90;;;;;;4937523;29;20559;-78
2024/01/11 08:17:10;;;;;;;67.68;26.23;;;-2.40;99.90;;;;;;4937564;29;20109;-78
2024/01/11 08:19:36;;;;;;;72.47;27.35;;;-2.40;99.90;;;;;;4935986;29;20086;-78
2024/01/11 08:22:02;;;;;;;74.88;28.98;;;-2.40;99.90;;;;;;4936625;29;20050;-78
2024/01/11 08:24:27;;;;;;;71.60;27.80;;;-2.40;99.90;;;;;;4936859;29;20043;-78
2024/01/11 08:26:53;;;;;;;72.22;28.55;;;-2.30;99.90;;;;;;4920000;29;20044;-78
2024/01/11 08:29:19;;;;;;;67.65;26.92;;;-2.30;99.90;;;;;;4920153;29;20047;-78
2024/01/11 08:31:48;;;;;;;72.60;27.33;;;-2.30;99.90;;;;;;4919732;29;20087;-78
2024/01/11 08:34:14;;;;;;;71.18;29.10;;;-2.20;99.90;;;;;;4919506;29;20044;-78
2024/01/11 08:36:40;;;;;;;70.28;26.92;;;-2.20;99.90;;;;;;4903752;29;20407;-78
2024/01/11 08:39:07;;;;;;;67.43;27.45;;;-2.20;99.90;;;;;;4919383;29;20044;-78
2024/01/11 08:41:33;;;;;;;72.75;29.50;;;-2.10;99.90;;;;;;4919789;29;20388;-78
2024/01/11 08:44:00;;;;;;;68.68;28.50;;;-2.10;99.90;;;;;;4936646;29;20459;-78
2024/01/11 08:46:26;;;;;;;70.82;27.15;;;-2.10;99.90;;;;;;4936440;29;20059;-78
2024/01/11 08:48:56;;;;;;;68.32;27.80;;;-2.00;99.90;;;;;;4936667;29;20047;-79
2024/01/11 08:51:22;;;;;;;76.00;28.25;;;-1.90;99.90;;;;;;4936548;29;20048;-78
2024/01/11 08:53:48;;;;;;;66.03;27.17;;;-1.90;99.90;;;;;;4936554;29;20392;-79
2024/01/11 08:56:16;;;;;;;68.68;27.27;;;-1.90;99.90;;;;;;4936111;29;20086;-78
2024/01/11 08:58:41;;;;;;;68.90;28.25;;;-1.90;99.90;;;;;;4937015;29;20044;-79
2024/01/11 09:01:08;;;;;;;65.90;26.27;;;-1.90;99.90;;;;;;4919220;29;20480;-79
2024/01/11 09:03:37;;;;;;;66.10;28.42;;;-1.80;99.90;;;;;;4919452;29;20494;-79
2024/01/11 09:06:05;;;;;;;65.90;27.08;;;-1.80;99.90;;;;;;4936211;29;20043;-78
2024/01/11 09:08:47;;;;;;;71.60;27.83;;;-1.70;99.90;;;;;;4919860;29;20071;-77
2024/01/11 09:11:15;;;;;;;71.05;26.25;;;-1.70;99.90;;;;;;4902567;29;20039;-80
2024/01/11 09:13:41;;;;;;;65.22;27.38;;;-1.70;99.90;;;;;;4935923;29;20110;-79
2024/01/11 09:16:07;;;;;;;64.22;26.25;;;-1.60;99.90;;;;;;4918786;29;20535;-78
2024/01/11 09:18:32;;;;;;;79.70;30.80;;;-1.60;99.90;;;;;;4936347;29;20047;-79
2024/01/11 09:27:44;;;;;;;68.20;26.33;;;-1.50;99.90;;;;;;4876831;29;20486;-80
2024/01/11 09:31:01;;;;;;;;;;;;;;;;;;;;;
2024/01/11 09:59:16;;;;;;;;;;;;;;;;;;;;;
2024/01/11 11:13:33;;;;;;;;;;;;;;;;;;;;;
2024/01/11 11:57:11;;;;;;;65.25;26.95;;;0.70;99.90;;;;;;6115706;23;20026;-78
2024/01/11 12:13:48;;;;;;;;;;;;;;;;;;;;;
2024/01/11 12:53:37;;;;;;;;;;;;;;;;;;;;;
2024/01/11 13:13:32;;;;;;;63.30;24.02;;;1.10;99.90;;;;;;6269041;22;20020;-77
2024/01/11 13:29:16;;;;;;;;;;;;;;;;;;;;;
2024/01/11 13:40:07;;;;;;;49.40;20.65;;;1.20;99.90;;;;;;6277380;22;20099;-77
2024/01/11 13:49:45;;;;;;;48.05;19.27;;;1.30;99.90;;;;;;6274820;22;20079;-78
2024/01/11 13:53:06;;;;;;;50.80;20.40;;;1.30;99.90;;;;;;6064907;23;20076;-76
2024/01/11 14:04:32;;;;;;;45.50;18.92;;;1.30;99.90;;;;;;5897827;24;20033;-78
2024/01/11 14:12:37;;;;;;;;;;;;;;;;;;;;;
2024/01/11 14:16:15;;;;;;;;;;;;;;;;;;;;;
2024/01/11 14:31:39;;;;;;;;;;;;;;;;;;;;;
2024/01/11 14:48:23;;;;;;;60.40;24.92;;;1.40;99.90;;;;;;6365468;21;20426;-77
2024/01/11 14:50:50;;;;;;;53.35;21.27;;;1.50;99.90;;;;;;6249635;22;1246475;-80
2024/01/11 14:53:16;;;;;;;44.40;19.02;;;1.50;99.90;;;;;;6285163;22;20437;-77
2024/01/11 14:55:42;;;;;;;49.20;19.92;;;1.50;99.90;;;;;;6252756;23;20026;-76
2024/01/11 14:58:09;;;;;;;47.10;18.50;;;1.50;99.90;;;;;;6254181;22;20115;-76
2024/01/11 15:00:34;;;;;;;42.95;17.75;;;1.60;99.90;;;;;;6253671;23;20020;-75
2024/01/11 15:03:00;;;;;;;47.10;18.45;;;1.60;99.90;;;;;;6252923;23;20066;-77
2024/01/11 15:05:36;;;;;;;59.45;24.05;;;1.60;99.90;;;;;;6254666;23;20380;-77
2024/01/11 15:08:04;;;;;;;65.68;27.15;;;1.60;99.90;;;;;;6229295;23;20054;-77
2024/01/11 15:10:30;;;;;;;60.63;22.52;;;1.60;99.90;;;;;;6227807;23;20016;-77
2024/01/11 15:12:56;;;;;;;49.85;19.80;;;1.60;99.90;;;;;;6254814;23;20008;-78
2024/01/11 15:15:22;;;;;;;43.70;18.35;;;1.60;99.90;;;;;;6254637;23;20452;-77
2024/01/11 15:17:48;;;;;;;47.90;19.75;;;1.60;99.90;;;;;;6253204;23;20362;-77
2024/01/11 15:20:13;;;;;;;51.20;19.02;;;1.60;99.90;;;;;;6254684;23;20330;-77
2024/01/11 15:22:39;;;;;;;45.13;18.77;;;1.70;99.90;;;;;;6227284;23;20016;-76
2024/01/11 15:25:05;;;;;;;50.22;18.80;;;1.70;99.90;;;;;;6254421;23;20008;-77
2024/01/11 15:27:31;;;;;;;48.55;18.92;;;1.70;99.90;;;;;;6252540;23;20457;-76
2024/01/11 15:29:57;;;;;;;49.25;19.83;;;1.70;99.90;;;;;;6253676;23;20039;-75
2024/01/11 15:32:23;;;;;;;48.38;18.70;;;1.70;99.90;;;;;;6253719;23;20008;-75
2024/01/11 15:34:48;;;;;;;42.33;16.92;;;1.70;99.90;;;;;;6252978;23;20008;-77
2024/01/11 15:37:14;;;;;;;48.25;19.50;;;1.70;99.90;;;;;;6252608;23;20016;-77
2024/01/11 15:39:40;;;;;;;49.92;19.23;;;1.70;99.90;;;;;;6253352;23;20060;-76
2024/01/11 15:42:06;;;;;;;43.70;17.95;;;1.70;99.90;;;;;;6252986;23;20089;-76
2024/01/11 15:44:33;;;;;;;50.65;20.45;;;1.70;99.90;;;;;;6254053;22;20087;-78
2024/01/11 15:47:00;;;;;;;52.85;20.35;;;1.70;99.90;;;;;;6253821;23;20081;-76
2024/01/11 15:49:26;;;;;;;49.25;20.45;;;1.70;99.90;;;;;;6220015;23;20012;-76
2024/01/11 15:51:52;;;;;;;49.28;20.35;;;1.70;99.90;;;;;;6245551;23;20023;-76
2024/01/11 15:54:20;;;;;;;51.42;21.15;;;1.70;99.90;;;;;;6245656;23;20341;-75
2024/01/11 15:56:45;;;;;;;50.95;20.75;;;1.70;99.90;;;;;;6220109;23;20090;-76
2024/01/11 15:59:11;;;;;;;55.22;20.45;;;1.70;99.90;;;;;;6247283;22;20117;-76
2024/01/11 16:01:38;;;;;;;49.75;20.35;;;1.70;99.90;;;;;;6247298;23;20012;-76
2024/01/11 16:04:04;;;;;;;47.75;19.35;;;1.60;99.90;;;;;;6245451;23;20012;-76
2024/01/11 16:06:30;;;;;;;57.80;20.85;;;1.60;99.90;;;;;;6247243;22;20019;-75
2024/01/11 16:08:56;;;;;;;50.70;19.42;;;1.70;99.90;;;;;;6247206;22;20081;-76
2024/01/11 16:11:22;;;;;;;51.45;21.42;;;1.60;99.90;;;;;;6247026;23;20465;-77
2024/01/11 16:13:49;;;;;;;57.08;20.73;;;1.60;99.90;;;;;;6246797;23;20450;-77
2024/01/11 16:16:14;;;;;;;57.40;21.75;;;1.70;99.90;;;;;;6247130;23;20398;-76
2024/01/11 16:18:40;;;;;;;57.60;21.00;;;1.70;99.90;;;;;;6245345;23;20017;-76
2024/01/11 16:21:06;;;;;;;51.45;21.48;;;1.70;99.90;;;;;;6247068;23;20012;-76
2024/01/11 16:23:33;;;;;;;50.83;20.27;;;1.70;99.90;;;;;;6245191;23;20426;-75
2024/01/11 16:26:00;;;;;;;50.45;20.10;;;1.70;99.90;;;;;;6247199;23;20012;-76
2024/01/11 16:28:26;;;;;;;52.33;20.30;;;1.70;99.90;;;;;;6246259;23;20016;-77
2024/01/11 16:30:53;;;;;;;54.30;21.02;;;1.70;99.90;;;;;;6245269;23;20047;-75
2024/01/11 16:33:19;;;;;;;55.85;21.80;;;1.70;99.90;;;;;;6247083;23;20035;-76
2024/01/11 16:35:46;;;;;;;57.65;20.83;;;1.70;99.90;;;;;;6246742;22;20012;-76
2024/01/11 16:38:14;;;;;;;53.97;19.42;;;1.70;99.90;;;;;;6247005;23;20008;-76
2024/01/11 16:40:40;;;;;;;56.30;20.15;;;1.70;99.90;;;;;;6247064;22;20012;-75
2024/01/11 16:43:10;;;;;;;55.53;21.25;;;1.70;99.90;;;;;;6247953;22;20027;-77
2024/01/11 16:45:36;;;;;;;57.47;21.33;;;1.70;99.90;;;;;;6245056;23;20047;-77
2024/01/11 16:48:06;;;;;;;58.42;20.77;;;1.60;99.90;;;;;;6245213;23;20020;-77
2024/01/11 16:50:32;;;;;;;54.00;21.17;;;1.60;99.90;;;;;;6245511;23;20035;-76
2024/01/11 16:52:58;;;;;;;55.20;22.15;;;1.70;99.90;;;;;;6246938;22;20402;-79
2024/01/11 16:55:23;;;;;;;62.75;24.20;;;1.70;99.90;;;;;;6246573;23;20012;-77
2024/01/11 16:57:49;;;;;;;65.10;24.50;;;1.70;99.90;;;;;;6246900;23;20079;-76
2024/01/11 17:00:16;;;;;;;69.95;25.00;;;1.70;99.90;;;;;;6244573;23;20039;-77
2024/01/11 17:02:42;;;;;;;55.05;22.80;;;1.70;99.90;;;;;;6246560;23;20019;-75
2024/01/11 17:05:08;;;;;;;66.60;25.80;;;1.70;99.90;;;;;;6244988;23;20016;-76
2024/01/11 17:07:34;;;;;;;68.25;26.05;;;1.70;99.90;;;;;;6245402;23;20437;-75
2024/01/11 17:09:59;;;;;;;62.60;23.55;;;1.60;99.90;;;;;;6244628;23;20019;-76
2024/01/11 17:12:25;;;;;;;55.92;21.88;;;1.70;99.90;;;;;;6246680;23;20014;-76
2024/01/11 17:14:50;;;;;;;59.10;23.80;;;1.60;99.90;;;;;;6246445;23;20536;-77
2024/01/11 17:17:16;;;;;;;59.22;24.27;;;1.60;99.90;;;;;;6244792;23;20031;-76
2024/01/11 17:19:42;;;;;;;59.30;24.05;;;1.60;99.90;;;;;;6246310;23;20019;-76
2024/01/11 17:22:07;;;;;;;66.88;25.13;;;1.60;99.90;;;;;;6246601;23;20008;-76
2024/01/11 17:24:33;;;;;;;76.15;30.15;;;1.70;99.90;;;;;;6244779;23;20008;-76
2024/01/11 17:27:03;;;;;;;67.60;26.15;;;1.70;99.90;;;;;;6244638;23;20047;-76
2024/01/11 17:29:30;;;;;;;57.58;22.55;;;1.70;99.90;;;;;;6244761;23;20074;-76
2024/01/11 17:31:58;;;;;;;49.55;20.58;;;1.70;99.90;;;;;;6245390;23;20020;-76
2024/01/11 17:34:24;;;;;;;52.00;20.85;;;1.60;99.90;;;;;;6244679;23;20012;-76
2024/01/11 17:36:50;;;;;;;50.53;21.10;;;1.60;99.90;;;;;;6246155;23;20050;-76
2024/01/11 17:39:18;;;;;;;54.95;21.83;;;1.50;99.90;;;;;;6244631;23;20016;-76
2024/01/11 17:41:43;;;;;;;58.15;21.27;;;1.50;99.90;;;;;;6246227;23;20012;-76
2024/01/11 17:44:09;;;;;;;57.92;23.00;;;1.50;99.90;;;;;;6244444;23;20015;-77
2024/01/11 17:46:35;;;;;;;65.07;24.48;;;1.50;99.90;;;;;;6244353;23;20020;-76
2024/01/11 17:49:01;;;;;;;62.55;23.98;;;1.40;99.90;;;;;;6246415;23;20023;-75
2024/01/11 17:51:27;;;;;;;59.30;25.48;;;1.50;99.90;;;;;;6244388;23;20012;-75
2024/01/11 17:53:53;;;;;;;70.55;26.75;;;1.50;99.90;;;;;;6244446;23;20016;-74
2024/01/11 17:56:21;;;;;;;58.17;25.77;;;1.50;99.90;;;;;;6246269;23;20019;-74
2024/01/11 17:58:47;;;;;;;63.15;25.25;;;1.50;99.90;;;;;;6244466;23;20012;-74
2024/01/11 18:01:23;;;;;;;63.40;26.05;;;1.60;99.90;;;;;;6244367;23;20132;-76
2024/01/11 18:03:49;;;;;;;73.22;27.13;;;1.60;99.90;;;;;;6246551;22;20359;-74
2024/01/11 18:06:15;;;;;;;67.47;27.58;;;1.60;99.90;;;;;;6245862;23;20048;-75
2024/01/11 18:08:41;;;;;;;74.40;27.15;;;1.60;99.90;;;;;;6244456;23;20530;-75
2024/01/11 18:11:11;;;;;;;72.47;29.15;;;1.60;99.90;;;;;;6218982;23;20012;-75
2024/01/11 18:13:36;;;;;;;62.90;28.10;;;1.60;99.90;;;;;;6244427;23;20094;-74
2024/01/11 18:16:06;;;;;;;69.55;27.63;;;1.60;99.90;;;;;;6244285;23;20051;-75
2024/01/11 18:18:33;;;;;;;63.47;25.15;;;1.60;99.90;;;;;;6244413;23;20015;-74
2024/01/11 18:20:58;;;;;;;59.60;24.17;;;1.60;99.90;;;;;;6246116;22;20014;-75
2024/01/11 18:23:25;;;;;;;51.65;22.08;;;1.60;99.90;;;;;;6246094;23;20047;-75
2024/01/11 18:25:56;;;;;;;61.72;24.58;;;1.50;99.90;;;;;;6246360;22;20012;-76
2024/01/11 18:28:22;;;;;;;58.13;23.35;;;1.50;99.90;;;;;;6246872;23;20353;-79
2024/01/11 18:30:48;;;;;;;59.97;23.33;;;1.50;99.90;;;;;;6244297;23;20023;-77
2024/01/11 18:33:14;;;;;;;61.80;22.98;;;1.50;99.90;;;;;;6245823;23;20040;-75
2024/01/11 18:35:40;;;;;;;58.35;24.02;;;1.50;99.90;;;;;;6246751;23;20079;-76
2024/01/11 18:38:05;;;;;;;63.28;25.23;;;1.50;99.90;;;;;;6245661;23;20095;-75
2024/01/11 18:40:31;;;;;;;59.42;23.38;;;1.50;99.90;;;;;;6244598;23;20055;-75
2024/01/11 18:42:59;;;;;;;64.50;24.52;;;1.50;99.90;;;;;;6246097;23;20075;-76
2024/01/11 18:45:25;;;;;;;60.28;23.42;;;1.60;99.90;;;;;;6244007;23;20012;-76
2024/01/11 18:47:51;;;;;;;54.90;20.40;;;1.60;99.90;;;;;;6246076;23;20075;-75
2024/01/11 18:50:17;;;;;;;53.65;18.48;;;1.60;99.90;;;;;;6244464;23;20468;-75
2024/01/11 18:52:43;;;;;;;54.63;20.60;;;1.60;99.90;;;;;;6244257;23;20012;-77
2024/01/11 18:55:09;;;;;;;57.30;22.45;;;1.70;99.90;;;;;;6245978;23;20012;-77
2024/01/11 18:57:35;;;;;;;52.25;21.13;;;1.70;99.90;;;;;;6244182;23;20044;-77
2024/01/11 19:00:01;;;;;;;47.85;21.10;;;1.70;99.90;;;;;;6244235;23;20040;-76
2024/01/11 19:02:27;;;;;;;53.72;21.40;;;1.70;99.90;;;;;;6246013;22;20085;-76
2024/01/11 19:04:53;;;;;;;59.00;23.25;;;1.60;99.90;;;;;;6244054;23;20039;-77
2024/01/11 19:07:20;;;;;;;49.50;22.55;;;1.70;99.90;;;;;;6245952;23;20016;-76
2024/01/11 19:09:45;;;;;;;64.35;23.40;;;1.60;99.90;;;;;;6245930;22;20070;-76
2024/01/11 19:12:11;;;;;;;56.35;22.52;;;1.70;99.90;;;;;;6245825;23;20008;-75
2024/01/11 19:14:36;;;;;;;58.55;22.65;;;1.70;99.90;;;;;;6245798;23;20012;-77
2024/01/11 19:17:12;;;;;;;59.90;23.30;;;1.60;99.90;;;;;;6243931;23;20020;-77
2024/01/11 19:19:38;;;;;;;57.70;21.65;;;1.70;99.90;;;;;;6243695;23;20039;-76
2024/01/11 19:22:04;;;;;;;50.40;20.90;;;1.70;99.90;;;;;;6245852;23;20431;-76
2024/01/11 19:24:29;;;;;;;56.72;21.70;;;1.70;99.90;;;;;;6245811;23;20012;-75
2024/01/11 19:26:55;;;;;;;56.17;20.85;;;1.70;99.90;;;;;;6245915;23;20016;-77
2024/01/11 19:29:21;;;;;;;53.72;22.73;;;1.70;99.90;;;;;;6245878;23;20377;-75
2024/01/11 19:31:47;;;;;;;50.17;21.48;;;1.60;99.90;;;;;;6247249;23;20125;-76
2024/01/11 19:34:13;;;;;;;54.38;21.02;;;1.70;99.90;;;;;;6245885;23;20079;-75
2024/01/11 19:36:40;;;;;;;56.58;21.10;;;1.60;99.90;;;;;;6247628;23;20047;-77
2024/01/11 19:39:09;;;;;;;51.00;21.85;;;1.60;99.90;;;;;;6220874;23;20087;-75
2024/01/11 19:41:35;;;;;;;57.42;21.63;;;1.60;99.90;;;;;;6245527;23;20008;-76
2024/01/11 19:44:01;;;;;;;51.10;20.77;;;1.60;99.90;;;;;;6245870;23;20005;-76
2024/01/11 19:46:33;;;;;;;52.42;20.50;;;1.60;99.90;;;;;;6245727;23;20444;-77
2024/01/11 19:48:59;;;;;;;55.42;22.45;;;1.60;99.90;;;;;;6247900;23;20065;-76
2024/01/11 19:51:25;;;;;;;54.25;21.63;;;1.60;99.90;;;;;;6245509;23;20023;-77
2024/01/11 19:53:54;;;;;;;57.38;21.35;;;1.50;99.90;;;;;;6247142;22;20075;-76
2024/01/11 19:56:32;;;;;;;;;;;;;;;;;;;;;
2024/01/11 19:58:59;;;;;;;48.22;20.92;;;1.60;99.90;;;;;;6245046;23;20118;-76
2024/01/11 20:01:25;;;;;;;54.10;20.55;;;1.60;99.90;;;;;;6220067;23;20026;-77
2024/01/11 20:04:05;;;;;;;54.90;21.33;;;1.70;99.90;;;;;;6247650;22;20008;-76
2024/01/11 20:06:30;;;;;;;45.70;19.95;;;1.70;99.90;;;;;;6246412;22;20015;-78
2024/01/11 20:08:56;;;;;;;52.72;20.25;;;1.70;99.90;;;;;;6220429;23;20342;-76
2024/01/11 20:11:23;;;;;;;45.42;18.20;;;1.60;99.90;;;;;;6247227;23;20398;-76
2024/01/11 20:13:49;;;;;;;56.85;20.85;;;1.60;99.90;;;;;;6245258;23;20012;-75
2024/01/11 20:16:15;;;;;;;58.95;20.50;;;1.70;99.90;;;;;;6220087;23;20529;-77
2024/01/11 20:18:41;;;;;;;48.53;20.15;;;1.70;99.90;;;;;;6245556;23;20358;-77
2024/01/11 20:21:10;;;;;;;57.38;20.25;;;1.70;99.90;;;;;;6245315;23;20050;-77
2024/01/11 20:23:42;;;;;;;49.83;19.25;;;1.70;99.90;;;;;;6245346;23;20019;-77
2024/01/11 20:26:09;;;;;;;51.35;19.25;;;1.70;99.90;;;;;;6247312;22;20044;-76
2024/01/11 20:28:35;;;;;;;61.70;19.13;;;1.60;99.90;;;;;;6245766;23;20012;-77
2024/01/11 20:31:01;;;;;;;52.00;19.55;;;1.60;99.90;;;;;;6245677;23;20012;-77
2024/01/11 20:33:26;;;;;;;45.08;18.35;;;1.60;99.90;;;;;;6245546;23;20016;-76
2024/01/11 20:35:53;;;;;;;46.97;19.17;;;1.60;99.90;;;;;;6246959;23;20012;-76
2024/01/11 20:38:42;;;;;;;46.13;16.08;;;1.60;99.90;;;;;;6245680;23;20008;-76
2024/01/11 20:41:23;;;;;;;48.25;16.77;;;1.70;99.90;;;;;;6219537;23;20008;-78
2024/01/11 20:43:50;;;;;;;49.55;15.77;;;1.70;99.90;;;;;;6212652;23;20125;-76
2024/01/11 20:46:23;;;;;;;44.70;16.63;;;1.80;99.90;;;;;;6189001;23;20017;-78
2024/01/11 20:49:22;;;;;;;42.47;15.95;;;1.80;99.90;;;;;;6189085;23;20012;-77
2024/01/11 20:56:32;;;;;;;;;;;;;;;;;;;;;
2024/01/11 20:59:41;;;;;;;38.80;15.98;;;1.80;99.90;;;;;;6167973;23;20017;-77
2024/01/11 21:02:46;;;;;;;;;;;;;;;;;;;;;
2024/01/11 21:05:59;;;;;;;36.20;14.15;;;1.70;99.90;;;;;;6185857;23;20024;-76
2024/01/11 21:09:16;;;;;;;40.58;14.18;;;1.70;99.90;;;;;;6143019;23;20028;-77
2024/01/11 21:12:18;;;;;;;;;;;1.70;99.90;;;;;;6158098;23;20017;-77
2024/01/11 21:15:07;;;;;;;35.75;13.32;;;1.70;99.90;;;;;;6170519;23;20223;-77
2024/01/11 21:18:11;;;;;;;45.63;15.18;;;1.70;99.90;;;;;;6189100;23;20027;-77
2024/01/11 21:21:04;;;;;;;;;;;;;;;;;;;;;
2024/01/11 21:23:55;;;;;;;;;;;;;;;;;;;;;
2024/01/11 21:26:47;;;;;;;;;;;;;;;;;;;;;
2024/01/11 21:29:15;;;;;;;41.22;16.13;;;1.60;99.90;;;;;;6211801;23;20009;-78
2024/01/11 21:32:17;;;;;;;;;;;;;;;;;;;;;
2024/01/11 21:35:24;;;;;;;;;;;;;;;;;;;;;
2024/01/11 21:38:38;;;;;;;45.28;15.48;;;1.60;99.90;;;;;;6246155;22;20047;-76
2024/01/11 21:41:30;;;;;;;55.15;17.92;;;1.50;99.90;;;;;;6154345;23;20055;-76
2024/01/11 21:47:56;;;;;;;;;;;;;;;;;;;;;
2024/01/11 21:51:07;;;;;;;49.40;17.23;;;1.60;99.90;;;;;;6207590;23;20439;-77
2024/01/11 21:54:19;;;;;;;49.40;16.73;;;1.60;99.90;;;;;;6130225;23;20415;-78
2024/01/11 21:57:36;;;;;;;46.42;15.65;;;1.60;99.90;;;;;;6111234;23;20082;-77